PWSweather.com
Personal Weather Stations
Station Observations
FAUSKE
Nordland, Norway, FauskeNO 8200

Nordland, NorwayFauskeNO 8200

Lat: 67.2607586, Lon: 15.4114204

Elevation: 40

Station Type: Davis Vantage PRO2

http://www.bjornli.net/weather.html

High Low Average
Temperature 63.6°F17.6°C 49.9°F9.9°C 58.9°F14.9°C
Dew Point 54.7°F12.6°C 46.0°F7.8°C 51.7°F10.9°C
Winds 18.0 mph 29.0 kmh Calm Calm 5.0 mph SE8.0 kmh SE
Wind Gusts 23.0 mph37.0 kmh -- 8.0 mph12.9 kmh
Humidity 89% 71% 77%
Pressure 30.05 in1017.6 mb 29.74 in1007.1 mb -
Precipitation 0.00 in0.0 mm - -
Hour Temp Dew Point Humidity Winds Wind Gusts Pressure Precip Precip Rate Daily Precip Total
12:00 AM 50.3°F10.2°C 46.3°F7.9°C 86% Calm Calm -- 30.05 in1017.6 mb 0.00 in0.0 mm 0.00 in0.0 mm 0.00 in0.0 mm
12:10 AM 49.9°F9.9°C 46.2°F7.9°C 87% Calm Calm -- 30.05 in1017.6 mb 0.00 in0.0 mm 0.00 in0.0 mm 0.00 in0.0 mm
12:30 AM 50.0°F10.0°C 46.0°F7.8°C 86% Calm Calm -- 30.05 in1017.6 mb 0.00 in0.0 mm 0.00 in0.0 mm 0.00 in0.0 mm
12:40 AM 50.0°F10.0°C 46.3°F7.9°C 87% Calm Calm -- 30.05 in1017.6 mb 0.00 in0.0 mm 0.00 in0.0 mm 0.00 in0.0 mm
01:00 AM 50.5°F10.3°C 46.2°F7.9°C 85% Calm Calm -- 30.05 in1017.6 mb 0.00 in0.0 mm 0.00 in0.0 mm 0.00 in0.0 mm
01:10 AM 50.7°F10.4°C 46.4°F8.0°C 85% Calm Calm -- 30.05 in1017.6 mb 0.00 in0.0 mm 0.00 in0.0 mm 0.00 in0.0 mm
01:30 AM 51.5°F10.8°C 46.8°F8.2°C 84% 6.0 mph SE9.7 kmh SE 6.0 mph9.7 kmh 30.04 in1017.3 mb 0.00 in0.0 mm 0.00 in0.0 mm 0.00 in0.0 mm
01:39 AM 53.0°F11.7°C 47.3°F8.5°C 81% 4.0 mph SE6.4 kmh SE 12.0 mph19.3 kmh 30.04 in1017.3 mb 0.00 in0.0 mm 0.00 in0.0 mm 0.00 in0.0 mm
02:00 AM 54.2°F12.3°C 47.2°F8.4°C 77% Calm Calm 3.0 mph4.8 kmh 30.04 in1017.3 mb 0.00 in0.0 mm 0.00 in0.0 mm 0.00 in0.0 mm
02:10 AM 54.0°F12.2°C 47.0°F8.3°C 77% Calm Calm 6.0 mph9.7 kmh 30.04 in1017.3 mb 0.00 in0.0 mm 0.00 in0.0 mm 0.00 in0.0 mm
02:30 AM 54.0°F12.2°C 47.0°F8.3°C 77% 5.0 mph SE8.0 kmh SE 5.0 mph8.0 kmh 30.03 in1016.9 mb 0.00 in0.0 mm 0.00 in0.0 mm 0.00 in0.0 mm
02:40 AM 54.4°F12.4°C 47.4°F8.6°C 77% 3.0 mph SE4.8 kmh SE 6.0 mph9.7 kmh 30.03 in1016.9 mb 0.00 in0.0 mm 0.00 in0.0 mm 0.00 in0.0 mm
03:00 AM 54.0°F12.2°C 47.3°F8.5°C 78% Calm Calm -- 30.02 in1016.6 mb 0.00 in0.0 mm 0.00 in0.0 mm 0.00 in0.0 mm
03:10 AM 54.2°F12.3°C 46.8°F8.2°C 76% 5.0 mph SE8.0 kmh SE 10.0 mph16.1 kmh 30.02 in1016.6 mb 0.00 in0.0 mm 0.00 in0.0 mm 0.00 in0.0 mm
03:30 AM 56.1°F13.4°C 47.2°F8.4°C 72% 5.0 mph SE8.0 kmh SE 6.0 mph9.7 kmh 30.02 in1016.6 mb 0.00 in0.0 mm 0.00 in0.0 mm 0.00 in0.0 mm
03:40 AM 56.1°F13.4°C 47.9°F8.8°C 74% 3.0 mph SE4.8 kmh SE 7.0 mph11.3 kmh 30.01 in1016.3 mb 0.00 in0.0 mm 0.00 in0.0 mm 0.00 in0.0 mm
04:00 AM 55.0°F12.8°C 47.9°F8.8°C 77% Calm Calm -- 30.01 in1016.3 mb 0.00 in0.0 mm 0.00 in0.0 mm 0.00 in0.0 mm
04:10 AM 54.7°F12.6°C 48.0°F8.9°C 78% Calm Calm 4.0 mph6.4 kmh 30.01 in1016.3 mb 0.00 in0.0 mm 0.00 in0.0 mm 0.00 in0.0 mm
04:30 AM 54.5°F12.5°C 48.1°F8.9°C 79% Calm Calm -- 30.00 in1015.9 mb 0.00 in0.0 mm 0.00 in0.0 mm 0.00 in0.0 mm
04:40 AM 54.3°F12.4°C 48.3°F9.1°C 80% Calm Calm -- 30.00 in1015.9 mb 0.00 in0.0 mm 0.00 in0.0 mm 0.00 in0.0 mm
05:00 AM 54.3°F12.4°C 48.6°F9.2°C 81% 3.0 mph SE4.8 kmh SE 5.0 mph8.0 kmh 30.00 in1015.9 mb 0.00 in0.0 mm 0.00 in0.0 mm 0.00 in0.0 mm
05:09 AM 54.9°F12.7°C 48.9°F9.4°C 80% 5.0 mph SE8.0 kmh SE 7.0 mph11.3 kmh 29.99 in1015.6 mb 0.00 in0.0 mm 0.00 in0.0 mm 0.00 in0.0 mm
05:30 AM 55.9°F13.3°C 49.2°F9.6°C 78% 10.0 mph SE16.1 kmh SE 11.0 mph17.7 kmh 29.99 in1015.6 mb 0.00 in0.0 mm 0.00 in0.0 mm 0.00 in0.0 mm
05:40 AM 56.2°F13.4°C 49.1°F9.5°C 77% 6.0 mph SE9.7 kmh SE 13.0 mph20.9 kmh 29.99 in1015.6 mb 0.00 in0.0 mm 0.00 in0.0 mm 0.00 in0.0 mm
06:00 AM 56.9°F13.8°C 49.8°F9.9°C 77% 10.0 mph SSE16.1 kmh SSE 10.0 mph16.1 kmh 29.98 in1015.2 mb 0.00 in0.0 mm 0.00 in0.0 mm 0.00 in0.0 mm
06:10 AM 57.0°F13.9°C 49.9°F9.9°C 77% 7.0 mph SE11.3 kmh SE 16.0 mph25.7 kmh 29.98 in1015.2 mb 0.00 in0.0 mm 0.00 in0.0 mm 0.00 in0.0 mm
06:30 AM 57.3°F14.1°C 50.2°F10.1°C 77% 11.0 mph SE17.7 kmh SE 16.0 mph25.7 kmh 29.98 in1015.2 mb 0.00 in0.0 mm 0.00 in0.0 mm 0.00 in0.0 mm
06:40 AM 57.4°F14.1°C 50.3°F10.2°C 77% 11.0 mph SE17.7 kmh SE 19.0 mph30.6 kmh 29.98 in1015.2 mb 0.00 in0.0 mm 0.00 in0.0 mm 0.00 in0.0 mm
07:00 AM 57.4°F14.1°C 50.6°F10.3°C 78% 7.0 mph SE11.3 kmh SE 7.0 mph11.3 kmh 29.97 in1014.9 mb 0.00 in0.0 mm 0.00 in0.0 mm 0.00 in0.0 mm
07:09 AM 57.6°F14.2°C 50.8°F10.4°C 78% 9.0 mph SE14.5 kmh SE 11.0 mph17.7 kmh 29.97 in1014.9 mb 0.00 in0.0 mm 0.00 in0.0 mm 0.00 in0.0 mm
07:30 AM 58.2°F14.6°C 51.0°F10.6°C 77% 6.0 mph SSE9.7 kmh SSE 6.0 mph9.7 kmh 29.96 in1014.6 mb 0.00 in0.0 mm 0.00 in0.0 mm 0.00 in0.0 mm
07:40 AM 58.4°F14.7°C 50.9°F10.5°C 76% 2.0 mph SSE3.2 kmh SSE 15.0 mph24.1 kmh 29.96 in1014.6 mb 0.00 in0.0 mm 0.00 in0.0 mm 0.00 in0.0 mm
08:00 AM 58.6°F14.8°C 51.1°F10.6°C 76% 9.0 mph SSE14.5 kmh SSE 10.0 mph16.1 kmh 29.97 in1014.9 mb 0.00 in0.0 mm 0.00 in0.0 mm 0.00 in0.0 mm
08:10 AM 58.7°F14.8°C 51.2°F10.7°C 76% 7.0 mph SE11.3 kmh SE 12.0 mph19.3 kmh 29.97 in1014.9 mb 0.00 in0.0 mm 0.00 in0.0 mm 0.00 in0.0 mm
08:30 AM 59.3°F15.2°C 51.8°F11.0°C 76% Calm Calm 1.0 mph1.6 kmh 29.95 in1014.2 mb 0.00 in0.0 mm 0.00 in0.0 mm 0.00 in0.0 mm
08:40 AM 59.7°F15.4°C 51.8°F11.0°C 75% 7.0 mph SE11.3 kmh SE 10.0 mph16.1 kmh 29.96 in1014.6 mb 0.00 in0.0 mm 0.00 in0.0 mm 0.00 in0.0 mm
09:00 AM 61.4°F16.3°C 52.3°F11.3°C 72% 10.0 mph ESE16.1 kmh ESE 12.0 mph19.3 kmh 29.96 in1014.6 mb 0.00 in0.0 mm 0.00 in0.0 mm 0.00 in0.0 mm
09:10 AM 60.8°F16.0°C 52.1°F11.2°C 73% 6.0 mph SE9.7 kmh SE 13.0 mph20.9 kmh 29.95 in1014.2 mb 0.00 in0.0 mm 0.00 in0.0 mm 0.00 in0.0 mm
09:30 AM 60.6°F15.9°C 51.9°F11.1°C 73% 13.0 mph SE20.9 kmh SE 13.0 mph20.9 kmh 29.95 in1014.2 mb 0.00 in0.0 mm 0.00 in0.0 mm 0.00 in0.0 mm
09:40 AM 60.6°F15.9°C 52.3°F11.3°C 74% 4.0 mph SE6.4 kmh SE 16.0 mph25.7 kmh 29.95 in1014.2 mb 0.00 in0.0 mm 0.00 in0.0 mm 0.00 in0.0 mm
10:00 AM 60.5°F15.8°C 52.2°F11.2°C 74% 7.0 mph SE11.3 kmh SE 12.0 mph19.3 kmh 29.95 in1014.2 mb 0.00 in0.0 mm 0.00 in0.0 mm 0.00 in0.0 mm
10:09 AM 60.7°F15.9°C 52.4°F11.3°C 74% 10.0 mph SE16.1 kmh SE 13.0 mph20.9 kmh 29.94 in1013.9 mb 0.00 in0.0 mm 0.00 in0.0 mm 0.00 in0.0 mm
10:30 AM 61.1°F16.2°C 52.4°F11.3°C 73% 6.0 mph SE9.7 kmh SE 9.0 mph14.5 kmh 29.94 in1013.9 mb 0.00 in0.0 mm 0.00 in0.0 mm 0.00 in0.0 mm
10:40 AM 61.3°F16.3°C 52.6°F11.4°C 73% 12.0 mph SE19.3 kmh SE 14.0 mph22.5 kmh 29.93 in1013.5 mb 0.00 in0.0 mm 0.00 in0.0 mm 0.00 in0.0 mm
11:00 AM 61.6°F16.4°C 52.9°F11.6°C 73% 1.0 mph SE1.6 kmh SE 7.0 mph11.3 kmh 29.93 in1013.5 mb 0.00 in0.0 mm 0.00 in0.0 mm 0.00 in0.0 mm
11:10 AM 61.8°F16.6°C 52.7°F11.5°C 72% 11.0 mph SE17.7 kmh SE 16.0 mph25.7 kmh 29.93 in1013.5 mb 0.00 in0.0 mm 0.00 in0.0 mm 0.00 in0.0 mm
11:30 AM 61.5°F16.4°C 53.5°F11.9°C 75% 10.0 mph SE16.1 kmh SE 11.0 mph17.7 kmh 29.93 in1013.5 mb 0.00 in0.0 mm 0.00 in0.0 mm 0.00 in0.0 mm
11:40 AM 61.6°F16.4°C 53.6°F12.0°C 75% 6.0 mph E9.7 kmh E 12.0 mph19.3 kmh 29.93 in1013.5 mb 0.00 in0.0 mm 0.00 in0.0 mm 0.00 in0.0 mm
12:00 PM 62.2°F16.8°C 53.5°F11.9°C 73% 10.0 mph ESE16.1 kmh ESE 10.0 mph16.1 kmh 29.93 in1013.5 mb 0.00 in0.0 mm 0.00 in0.0 mm 0.00 in0.0 mm
12:10 PM 62.4°F16.9°C 53.6°F12.0°C 73% 6.0 mph SE9.7 kmh SE 12.0 mph19.3 kmh 29.93 in1013.5 mb 0.00 in0.0 mm 0.00 in0.0 mm 0.00 in0.0 mm
12:30 PM 62.3°F16.8°C 53.6°F12.0°C 73% 10.0 mph SSE16.1 kmh SSE 16.0 mph25.7 kmh 29.92 in1013.2 mb 0.00 in0.0 mm 0.00 in0.0 mm 0.00 in0.0 mm
12:40 PM 62.6°F17.0°C 53.5°F11.9°C 72% 3.0 mph SE4.8 kmh SE 16.0 mph25.7 kmh 29.91 in1012.9 mb 0.00 in0.0 mm 0.00 in0.0 mm 0.00 in0.0 mm
01:00 PM 62.7°F17.1°C 53.6°F12.0°C 72% 9.0 mph SE14.5 kmh SE 10.0 mph16.1 kmh 29.91 in1012.9 mb 0.00 in0.0 mm 0.00 in0.0 mm 0.00 in0.0 mm
01:10 PM 62.7°F17.1°C 53.6°F12.0°C 72% 14.0 mph SE22.5 kmh SE 17.0 mph27.4 kmh 29.90 in1012.5 mb 0.00 in0.0 mm 0.00 in0.0 mm 0.00 in0.0 mm
01:30 PM 62.9°F17.2°C 53.8°F12.1°C 72% 5.0 mph SSE8.0 kmh SSE 14.0 mph22.5 kmh 29.90 in1012.5 mb 0.00 in0.0 mm 0.00 in0.0 mm 0.00 in0.0 mm
01:40 PM 63.0°F17.2°C 53.8°F12.1°C 72% 18.0 mph SE29.0 kmh SE 18.0 mph29.0 kmh 29.89 in1012.2 mb 0.00 in0.0 mm 0.00 in0.0 mm 0.00 in0.0 mm
02:00 PM 63.3°F17.4°C 53.8°F12.1°C 71% 11.0 mph SE17.7 kmh SE 14.0 mph22.5 kmh 29.89 in1012.2 mb 0.00 in0.0 mm 0.00 in0.0 mm 0.00 in0.0 mm
02:10 PM 63.2°F17.3°C 53.7°F12.1°C 71% 14.0 mph SE22.5 kmh SE 23.0 mph37.0 kmh 29.89 in1012.2 mb 0.00 in0.0 mm 0.00 in0.0 mm 0.00 in0.0 mm
02:30 PM 63.1°F17.3°C 53.9°F12.2°C 72% 3.0 mph SE4.8 kmh SE 6.0 mph9.7 kmh 29.88 in1011.9 mb 0.00 in0.0 mm 0.00 in0.0 mm 0.00 in0.0 mm
02:40 PM 63.4°F17.4°C 53.8°F12.1°C 71% 9.0 mph SE14.5 kmh SE 19.0 mph30.6 kmh 29.88 in1011.9 mb 0.00 in0.0 mm 0.00 in0.0 mm 0.00 in0.0 mm
03:00 PM 63.6°F17.6°C 54.0°F12.2°C 71% 10.0 mph SE16.1 kmh SE 12.0 mph19.3 kmh 29.87 in1011.5 mb 0.00 in0.0 mm 0.00 in0.0 mm 0.00 in0.0 mm
03:10 PM 63.4°F17.4°C 53.8°F12.1°C 71% 3.0 mph SE4.8 kmh SE 16.0 mph25.7 kmh 29.87 in1011.5 mb 0.00 in0.0 mm 0.00 in0.0 mm 0.00 in0.0 mm
03:30 PM 63.3°F17.4°C 53.8°F12.1°C 71% 13.0 mph SE20.9 kmh SE 13.0 mph20.9 kmh 29.87 in1011.5 mb 0.00 in0.0 mm 0.00 in0.0 mm 0.00 in0.0 mm
03:40 PM 63.2°F17.3°C 53.7°F12.1°C 71% 11.0 mph SE17.7 kmh SE 19.0 mph30.6 kmh 29.86 in1011.2 mb 0.00 in0.0 mm 0.00 in0.0 mm 0.00 in0.0 mm
04:00 PM 63.5°F17.5°C 53.9°F12.2°C 71% 9.0 mph SE14.5 kmh SE 16.0 mph25.7 kmh 29.86 in1011.2 mb 0.00 in0.0 mm 0.00 in0.0 mm 0.00 in0.0 mm
04:09 PM 63.6°F17.6°C 54.0°F12.2°C 71% 18.0 mph SE29.0 kmh SE 19.0 mph30.6 kmh 29.86 in1011.2 mb 0.00 in0.0 mm 0.00 in0.0 mm 0.00 in0.0 mm
04:30 PM 63.2°F17.3°C 54.0°F12.2°C 72% 11.0 mph SE17.7 kmh SE 12.0 mph19.3 kmh 29.85 in1010.8 mb 0.00 in0.0 mm 0.00 in0.0 mm 0.00 in0.0 mm
04:40 PM 63.2°F17.3°C 54.0°F12.2°C 72% 10.0 mph SE16.1 kmh SE 13.0 mph20.9 kmh 29.85 in1010.8 mb 0.00 in0.0 mm 0.00 in0.0 mm 0.00 in0.0 mm
05:00 PM 63.0°F17.2°C 54.2°F12.3°C 73% 7.0 mph SE11.3 kmh SE 7.0 mph11.3 kmh 29.85 in1010.8 mb 0.00 in0.0 mm 0.00 in0.0 mm 0.00 in0.0 mm
05:09 PM 63.0°F17.2°C 54.2°F12.3°C 73% 3.0 mph SE4.8 kmh SE 13.0 mph20.9 kmh 29.85 in1010.8 mb 0.00 in0.0 mm 0.00 in0.0 mm 0.00 in0.0 mm
05:30 PM 62.8°F17.1°C 54.0°F12.2°C 73% 6.0 mph SE9.7 kmh SE 6.0 mph9.7 kmh 29.84 in1010.5 mb 0.00 in0.0 mm 0.00 in0.0 mm 0.00 in0.0 mm
05:40 PM 62.4°F16.9°C 54.0°F12.2°C 74% 3.0 mph SSE4.8 kmh SSE 14.0 mph22.5 kmh 29.84 in1010.5 mb 0.00 in0.0 mm 0.00 in0.0 mm 0.00 in0.0 mm
06:00 PM 60.8°F16.0°C 53.9°F12.2°C 78% Calm Calm -- 29.84 in1010.5 mb 0.00 in0.0 mm 0.00 in0.0 mm 0.00 in0.0 mm
06:10 PM 60.8°F16.0°C 53.9°F12.2°C 78% 1.0 mph SSE1.6 kmh SSE 12.0 mph19.3 kmh 29.84 in1010.5 mb 0.00 in0.0 mm 0.00 in0.0 mm 0.00 in0.0 mm
06:30 PM 60.5°F15.8°C 54.0°F12.2°C 79% Calm Calm -- 29.83 in1010.2 mb 0.00 in0.0 mm 0.00 in0.0 mm 0.00 in0.0 mm
06:40 PM 60.0°F15.6°C 53.8°F12.1°C 80% Calm Calm -- 29.83 in1010.2 mb 0.00 in0.0 mm 0.00 in0.0 mm 0.00 in0.0 mm
07:00 PM 59.2°F15.1°C 53.7°F12.1°C 82% Calm Calm -- 29.82 in1009.8 mb 0.00 in0.0 mm 0.00 in0.0 mm 0.00 in0.0 mm
07:10 PM 58.4°F14.7°C 53.6°F12.0°C 84% Calm Calm -- 29.82 in1009.8 mb 0.00 in0.0 mm 0.00 in0.0 mm 0.00 in0.0 mm
07:30 PM 58.3°F14.6°C 53.8°F12.1°C 85% Calm Calm -- 29.81 in1009.5 mb 0.00 in0.0 mm 0.00 in0.0 mm 0.00 in0.0 mm
07:40 PM 58.2°F14.6°C 54.0°F12.2°C 86% Calm Calm -- 29.80 in1009.1 mb 0.00 in0.0 mm 0.00 in0.0 mm 0.00 in0.0 mm
08:00 PM 57.9°F14.4°C 53.7°F12.1°C 86% Calm Calm -- 29.80 in1009.1 mb 0.00 in0.0 mm 0.00 in0.0 mm 0.00 in0.0 mm
08:10 PM 57.7°F14.3°C 53.6°F12.0°C 86% Calm Calm -- 29.80 in1009.1 mb 0.00 in0.0 mm 0.00 in0.0 mm 0.00 in0.0 mm
08:30 PM 56.5°F13.6°C 53.0°F11.7°C 88% Calm Calm -- 29.80 in1009.1 mb 0.00 in0.0 mm 0.00 in0.0 mm 0.00 in0.0 mm
08:40 PM 56.5°F13.6°C 53.3°F11.8°C 89% Calm Calm -- 29.80 in1009.1 mb 0.00 in0.0 mm 0.00 in0.0 mm 0.00 in0.0 mm
09:00 PM 56.9°F13.8°C 53.7°F12.1°C 89% Calm Calm -- 29.79 in1008.8 mb 0.00 in0.0 mm 0.00 in0.0 mm 0.00 in0.0 mm
09:10 PM 57.5°F14.2°C 54.0°F12.2°C 88% Calm Calm -- 29.79 in1008.8 mb 0.00 in0.0 mm 0.00 in0.0 mm 0.00 in0.0 mm
09:30 PM 58.8°F14.9°C 54.3°F12.4°C 85% Calm Calm -- 29.79 in1008.8 mb 0.00 in0.0 mm 0.00 in0.0 mm 0.00 in0.0 mm
09:39 PM 59.0°F15.0°C 54.2°F12.3°C 84% Calm Calm -- 29.79 in1008.8 mb 0.00 in0.0 mm 0.00 in0.0 mm 0.00 in0.0 mm
10:00 PM 58.8°F14.9°C 54.0°F12.2°C 84% Calm Calm -- 29.78 in1008.5 mb 0.00 in0.0 mm 0.00 in0.0 mm 0.00 in0.0 mm
10:10 PM 58.8°F14.9°C 54.0°F12.2°C 84% 5.0 mph SSE8.0 kmh SSE 11.0 mph17.7 kmh 29.77 in1008.1 mb 0.00 in0.0 mm 0.00 in0.0 mm 0.00 in0.0 mm
10:30 PM 60.9°F16.1°C 54.7°F12.6°C 80% 9.0 mph SE14.5 kmh SE 11.0 mph17.7 kmh 29.77 in1008.1 mb 0.00 in0.0 mm 0.00 in0.0 mm 0.00 in0.0 mm
10:40 PM 61.6°F16.4°C 54.7°F12.6°C 78% 6.0 mph SE9.7 kmh SE 13.0 mph20.9 kmh 29.77 in1008.1 mb 0.00 in0.0 mm 0.00 in0.0 mm 0.00 in0.0 mm
11:00 PM 62.1°F16.7°C 54.5°F12.5°C 76% 6.0 mph SE9.7 kmh SE 6.0 mph9.7 kmh 29.76 in1007.8 mb 0.00 in0.0 mm 0.00 in0.0 mm 0.00 in0.0 mm
11:09 PM 62.1°F16.7°C 54.5°F12.5°C 76% 7.0 mph SE11.3 kmh SE 11.0 mph17.7 kmh 29.76 in1007.8 mb 0.00 in0.0 mm 0.00 in0.0 mm 0.00 in0.0 mm
11:30 PM 62.5°F16.9°C 54.5°F12.5°C 75% 7.0 mph SE11.3 kmh SE 7.0 mph11.3 kmh 29.75 in1007.5 mb 0.00 in0.0 mm 0.00 in0.0 mm 0.00 in0.0 mm
11:40 PM 62.5°F16.9°C 54.5°F12.5°C 75% 10.0 mph SE16.1 kmh SE 15.0 mph24.1 kmh 29.74 in1007.1 mb 0.00 in0.0 mm 0.00 in0.0 mm 0.00 in0.0 mm